Terminal Aerodrome Forecast
Issued by NWS Corpus Christi, TX

Home | Current Version | Previous Version | Text Only | Print | Product List | Glossary On
Versions: 1 2 3 4 5 6 7 8 9 10 11 12 13 14 15 16 17 18 19
000
FTUS44 KCRP 022339
TAFCRP
TAF
KCRP 022339Z 0300/0324 14015G20KT P6SM SCT030 BKN250
     FM030300 15012KT P6SM SCT015 BKN250
     FM030900 15006KT P6SM SCT015
      TEMPO 0311/0313 5SM BR BKN015
     FM031600 15012G18KT P6SM VCSH BKN030
     FM032000 15018G25KT P6SM SCT040 BKN250=

USA.gov is the U.S. government's official web portal to all federal, state and local government web resources and services.